createdAt,value
2022-10-19T00:03:38.351Z,83.66
2022-10-19T00:07:46.542Z,83.62
2022-10-19T00:11:54.976Z,83.84
2022-10-19T00:16:04.212Z,83.80
2022-10-19T00:20:14.994Z,83.81
2022-10-19T00:24:22.878Z,84.04
2022-10-19T00:28:30.994Z,83.91
2022-10-19T00:32:38.820Z,83.87
2022-10-19T00:36:46.934Z,83.89
2022-10-19T00:40:55.061Z,83.78
2022-10-19T00:45:08.312Z,83.91
2022-10-19T00:49:17.877Z,83.84
2022-10-19T00:53:27.962Z,83.91
2022-10-19T00:57:36.558Z,83.94
2022-10-19T01:01:44.919Z,84.08
2022-10-19T01:05:54.043Z,84.01
2022-10-19T01:10:02.512Z,84.09
2022-10-19T01:14:20.275Z,83.98
2022-10-19T01:18:31.842Z,83.89
2022-10-19T01:22:52.298Z,83.84
2022-10-19T01:27:33.077Z,83.91
2022-10-19T01:31:46.278Z,83.97
2022-10-19T01:36:02.705Z,84.01
2022-10-19T01:40:13.378Z,84.09
2022-10-19T01:44:29.510Z,84.19
2022-10-19T01:48:38.988Z,84.26
2022-10-19T01:52:46.566Z,84.28
2022-10-19T01:56:57.665Z,84.13
2022-10-19T02:01:08.621Z,84.16
2022-10-19T02:05:16.468Z,84.34
2022-10-19T02:09:25.105Z,84.30
2022-10-19T02:13:33.656Z,84.29
2022-10-19T02:17:44.167Z,84.41
2022-10-19T02:21:52.118Z,84.48
2022-10-19T02:25:59.812Z,84.46
2022-10-19T02:30:09.203Z,84.78
2022-10-19T02:34:17.217Z,84.69
2022-10-19T02:38:25.539Z,84.78
2022-10-19T02:42:36.974Z,84.69
2022-10-19T02:46:47.875Z,84.80
2022-10-19T02:50:55.931Z,85.03
2022-10-19T02:55:04.032Z,85.01
2022-10-19T02:59:11.548Z,84.97
2022-10-19T03:03:19.395Z,85.00
2022-10-19T03:07:27.217Z,85.18
2022-10-19T03:11:37.997Z,85.18
2022-10-19T03:15:45.578Z,85.13
2022-10-19T03:19:53.928Z,84.96
2022-10-19T03:24:03.030Z,84.91
2022-10-19T03:28:11.237Z,84.94
2022-10-19T03:32:18.698Z,84.93
2022-10-19T03:36:28.839Z,84.92
2022-10-19T03:40:36.942Z,84.84
2022-10-19T03:44:44.740Z,84.75
2022-10-19T03:48:53.365Z,84.74
2022-10-19T03:53:01.028Z,84.81
2022-10-19T03:57:08.625Z,84.82
2022-10-19T04:01:19.184Z,84.70
2022-10-19T04:05:27.148Z,84.65
2022-10-19T04:09:35.372Z,84.62
2022-10-19T04:13:49.635Z,84.64
2022-10-19T04:17:56.873Z,84.64
2022-10-19T04:22:05.184Z,84.78
2022-10-19T04:26:14.458Z,84.82
2022-10-19T04:30:23.429Z,84.87
2022-10-19T04:34:36.355Z,85.10
2022-10-19T04:38:47.639Z,84.98
2022-10-19T04:42:55.575Z,85.02
2022-10-19T04:47:05.489Z,84.90
2022-10-19T04:51:14.449Z,84.72
2022-10-19T04:55:23.615Z,84.83
2022-10-19T04:59:32.291Z,84.80
2022-10-19T05:03:41.519Z,84.52
2022-10-19T05:07:52.199Z,84.22
2022-10-19T05:12:00.212Z,83.80
2022-10-19T05:16:12.593Z,83.41
2022-10-19T05:20:20.374Z,82.94
2022-10-19T05:24:28.526Z,82.94
2022-10-19T05:28:36.962Z,82.67
2022-10-19T05:32:44.583Z,82.45
2022-10-19T05:36:52.726Z,82.20
2022-10-19T05:41:00.301Z,82.08
2022-10-19T05:45:09.231Z,81.97
2022-10-19T05:49:17.989Z,81.66
2022-10-19T05:53:25.761Z,81.78
2022-10-19T05:57:35.377Z,81.50
2022-10-19T06:01:43.746Z,81.43
2022-10-19T06:05:52.712Z,81.68
2022-10-19T06:10:00.394Z,81.53
2022-10-19T06:14:17.916Z,81.61
2022-10-19T06:18:26.235Z,81.75
2022-10-19T06:22:34.334Z,81.76
2022-10-19T06:26:42.004Z,81.74
2022-10-19T06:30:51.697Z,81.64
2022-10-19T06:35:01.597Z,81.27
2022-10-19T06:39:09.397Z,81.15
2022-10-19T06:43:21.562Z,81.04
2022-10-19T06:47:33.627Z,80.92
2022-10-19T06:51:42.200Z,80.49
2022-10-19T06:55:49.794Z,80.57
2022-10-19T06:59:57.457Z,80.53
2022-10-19T07:04:05.469Z,80.56
2022-10-19T07:08:23.000Z,80.23
2022-10-19T07:12:32.122Z,79.82
2022-10-19T07:16:39.624Z,79.84
2022-10-19T07:20:57.582Z,79.66
2022-10-19T07:25:05.828Z,78.98
2022-10-19T07:29:13.697Z,78.63
2022-10-19T07:33:25.900Z,78.25
2022-10-19T07:37:34.889Z,78.13
2022-10-19T07:41:43.830Z,77.77
2022-10-19T07:45:51.512Z,77.60
2022-10-19T07:49:59.196Z,77.29
2022-10-19T07:54:07.491Z,77.02
2022-10-19T07:58:16.214Z,76.61
2022-10-19T08:02:30.819Z,76.46
2022-10-19T08:06:47.929Z,76.50
2022-10-19T08:10:55.720Z,76.27
2022-10-19T08:15:03.538Z,76.13
2022-10-19T08:19:17.519Z,76.08
2022-10-19T08:23:28.264Z,75.73
2022-10-19T08:27:40.187Z,75.39
2022-10-19T08:31:49.515Z,75.46
2022-10-19T08:35:57.046Z,75.56
2022-10-19T08:40:05.100Z,75.06
2022-10-19T08:44:29.090Z,74.98
2022-10-19T08:48:39.661Z,74.72
2022-10-19T08:52:51.919Z,74.73
2022-10-19T08:57:07.483Z,74.32
2022-10-19T09:01:21.332Z,74.57
2022-10-19T09:05:37.418Z,74.06
2022-10-19T09:09:51.002Z,73.87
2022-10-19T09:14:06.060Z,73.65
2022-10-19T09:18:16.581Z,74.19
2022-10-19T09:22:29.497Z,73.69
2022-10-19T09:26:48.351Z,73.32
2022-10-19T09:30:57.374Z,73.85
2022-10-19T09:35:06.588Z,73.86
2022-10-19T09:39:16.169Z,73.77
2022-10-19T09:43:25.649Z,73.77
2022-10-19T09:47:37.855Z,74.02
2022-10-19T09:51:51.946Z,73.43
2022-10-19T09:56:04.778Z,73.41
2022-10-19T10:00:20.846Z,72.87
2022-10-19T10:04:30.455Z,72.20
2022-10-19T10:08:41.951Z,72.51
2022-10-19T10:12:51.741Z,72.61
2022-10-19T10:17:05.070Z,73.32
2022-10-19T10:21:25.439Z,73.65
2022-10-19T10:25:36.591Z,73.72
2022-10-19T10:29:58.002Z,73.69
2022-10-19T10:34:16.582Z,72.87
2022-10-19T10:38:37.467Z,72.28
2022-10-19T10:42:47.400Z,71.69
2022-10-19T10:46:57.451Z,71.81
2022-10-19T10:51:07.176Z,72.19
2022-10-19T10:55:21.103Z,72.05
2022-10-19T10:59:32.260Z,71.61
2022-10-19T11:03:41.273Z,71.38
2022-10-19T11:07:52.192Z,70.35
2022-10-19T11:12:01.419Z,70.39
2022-10-19T11:16:15.237Z,70.05
2022-10-19T11:20:25.583Z,69.79
2022-10-19T11:24:43.876Z,68.47
2022-10-19T11:29:04.311Z,68.87
2022-10-19T11:33:21.526Z,67.53
2022-10-19T11:37:32.263Z,67.20
2022-10-19T11:41:46.988Z,67.03
2022-10-19T11:46:04.084Z,66.24
2022-10-19T11:50:31.088Z,65.98
2022-10-19T11:54:50.367Z,65.41
2022-10-19T11:59:03.239Z,66.50
2022-10-19T12:03:43.493Z,67.36
2022-10-19T12:08:03.003Z,67.90
2022-10-19T12:12:21.407Z,68.53
2022-10-19T12:16:39.022Z,68.99
2022-10-19T12:20:49.329Z,69.07
2022-10-19T12:24:58.989Z,68.96
2022-10-19T12:29:16.613Z,69.62
2022-10-19T12:33:27.827Z,69.87
2022-10-19T12:37:41.355Z,70.18
2022-10-19T12:41:53.471Z,70.59
2022-10-19T12:46:12.769Z,71.11
2022-10-19T12:50:58.383Z,70.66
2022-10-19T12:55:25.227Z,70.26
2022-10-19T12:59:35.260Z,70.09
2022-10-19T13:03:45.272Z,70.26
2022-10-19T13:07:54.501Z,70.33
2022-10-19T13:12:44.274Z,70.50
2022-10-19T13:17:06.516Z,70.43
2022-10-19T13:21:14.453Z,70.66
2022-10-19T13:25:29.749Z,70.40
2022-10-19T13:29:45.034Z,70.69
2022-10-19T13:33:57.373Z,70.84
2022-10-19T13:38:28.334Z,71.02
2022-10-19T13:42:36.292Z,71.08
2022-10-19T13:46:52.701Z,71.43
2022-10-19T13:51:02.981Z,71.84
2022-10-19T13:55:49.559Z,72.58
2022-10-19T14:00:07.805Z,73.26
2022-10-19T14:04:25.650Z,73.54
2022-10-19T14:08:51.378Z,73.63
2022-10-19T14:12:59.952Z,73.69
2022-10-19T14:21:37.011Z,73.60
2022-10-19T14:25:53.111Z,73.22
2022-10-19T14:30:00.846Z,72.71
2022-10-19T14:34:11.732Z,72.14
2022-10-19T14:38:22.773Z,71.68
2022-10-19T14:42:39.679Z,71.36
2022-10-19T14:46:50.340Z,70.95
2022-10-19T14:50:59.971Z,70.25
2022-10-19T14:55:14.088Z,69.98
2022-10-19T14:59:28.660Z,70.23
2022-10-19T15:03:40.216Z,70.43
2022-10-19T15:07:51.416Z,70.44
2022-10-19T15:12:02.682Z,70.54
2022-10-19T15:16:31.929Z,70.77
2022-10-19T15:20:54.964Z,70.76
2022-10-19T15:25:32.890Z,71.03
2022-10-19T15:29:42.063Z,71.30
2022-10-19T15:33:56.246Z,71.27
2022-10-19T15:38:08.577Z,71.49
2022-10-19T15:42:44.546Z,71.65
2022-10-19T15:47:19.847Z,71.78
2022-10-19T15:51:49.978Z,71.79
2022-10-19T15:55:57.768Z,72.09
2022-10-19T16:00:12.582Z,72.43
2022-10-19T16:04:20.119Z,72.67
2022-10-19T16:08:27.669Z,72.83
2022-10-19T16:12:35.694Z,73.01
2022-10-19T16:16:43.701Z,73.08
2022-10-19T16:20:51.994Z,73.49
2022-10-19T16:25:01.125Z,73.72
2022-10-19T16:29:08.828Z,73.92
2022-10-19T16:33:18.185Z,74.12
2022-10-19T16:37:27.808Z,74.11
2022-10-19T16:41:35.780Z,74.21
2022-10-19T16:45:46.965Z,74.05
2022-10-19T16:50:01.280Z,74.45
2022-10-19T16:54:11.952Z,74.86
2022-10-19T16:58:19.772Z,74.97
2022-10-19T17:02:27.636Z,75.30
2022-10-19T17:06:36.116Z,75.26
2022-10-19T17:10:44.173Z,75.43
2022-10-19T17:14:52.188Z,75.69
2022-10-19T17:19:00.633Z,75.86
2022-10-19T17:23:08.561Z,75.94
2022-10-19T17:27:16.498Z,75.82
2022-10-19T17:31:24.956Z,76.15
2022-10-19T17:35:33.077Z,76.07
2022-10-19T17:39:41.167Z,76.37
2022-10-19T17:43:52.037Z,76.62
2022-10-19T17:48:01.130Z,76.63
2022-10-19T17:52:09.549Z,76.99
2022-10-19T17:56:19.288Z,77.21
2022-10-19T18:00:27.121Z,77.45
2022-10-19T18:08:45.585Z,78.21
2022-10-19T18:12:53.835Z,78.16
2022-10-19T18:17:02.703Z,78.18
2022-10-19T18:21:13.279Z,78.17
2022-10-19T18:25:25.844Z,78.12
2022-10-19T18:29:39.353Z,78.04
2022-10-19T18:33:50.856Z,77.93
2022-10-19T18:37:58.571Z,78.25
2022-10-19T18:42:07.089Z,77.97
2022-10-19T18:46:16.236Z,78.23
2022-10-19T18:50:28.578Z,78.08
2022-10-19T18:54:41.357Z,78.18
2022-10-19T18:58:56.590Z,78.16
2022-10-19T19:03:07.453Z,78.40
2022-10-19T19:07:19.637Z,78.43
2022-10-19T19:11:33.104Z,78.47
2022-10-19T19:15:45.328Z,78.58
2022-10-19T19:19:53.112Z,78.90
2022-10-19T19:24:02.692Z,78.97
2022-10-19T19:28:12.890Z,78.72
2022-10-19T19:32:21.221Z,78.47
2022-10-19T19:36:28.652Z,78.72
2022-10-19T19:40:39.606Z,79.14
2022-10-19T19:44:47.569Z,78.96
2022-10-19T19:49:02.959Z,78.46
2022-10-19T19:53:11.192Z,78.28
2022-10-19T19:57:18.871Z,78.05
2022-10-19T20:01:27.436Z,78.71
2022-10-19T20:05:36.047Z,79.06
2022-10-19T20:09:44.278Z,78.50
2022-10-19T20:13:52.463Z,78.85
2022-10-19T20:18:00.561Z,79.11
2022-10-19T20:22:08.064Z,79.08
2022-10-19T20:26:19.836Z,79.55
2022-10-19T20:30:27.702Z,79.47
2022-10-19T20:34:37.967Z,79.59
2022-10-19T20:38:49.188Z,79.30
2022-10-19T20:42:57.714Z,78.63
2022-10-19T20:47:05.211Z,78.11
2022-10-19T20:51:15.838Z,77.86
2022-10-19T20:55:23.373Z,77.51
2022-10-19T20:59:33.749Z,77.77
2022-10-19T21:03:42.695Z,77.55
2022-10-19T21:07:50.816Z,77.58
2022-10-19T21:11:58.538Z,77.43
2022-10-19T21:16:13.483Z,77.13
2022-10-19T21:20:20.940Z,77.20
2022-10-19T21:24:32.334Z,77.35
2022-10-19T21:28:41.662Z,77.17
2022-10-19T21:32:50.969Z,77.28
2022-10-19T21:36:59.383Z,76.99
2022-10-19T21:41:09.725Z,77.25
2022-10-19T21:45:29.994Z,77.02
2022-10-19T21:49:38.660Z,77.02
2022-10-19T21:53:47.182Z,77.00
2022-10-19T21:57:54.761Z,77.12
2022-10-19T22:02:02.599Z,77.09
2022-10-19T22:06:10.453Z,77.43
2022-10-19T22:10:18.752Z,77.56
2022-10-19T22:14:26.674Z,77.35
2022-10-19T22:18:34.599Z,77.61
2022-10-19T22:22:43.080Z,77.33
2022-10-19T22:26:51.945Z,77.51
2022-10-19T22:31:00.725Z,78.03
2022-10-19T22:35:09.640Z,78.54
2022-10-19T22:39:18.023Z,78.78
2022-10-19T22:43:25.424Z,78.76
2022-10-19T22:47:32.726Z,78.94
2022-10-19T22:51:40.393Z,79.27
2022-10-19T22:55:47.905Z,79.00
2022-10-19T22:59:55.625Z,79.11
2022-10-19T23:04:03.282Z,79.05
2022-10-19T23:08:10.976Z,78.70
2022-10-19T23:12:18.353Z,78.62
2022-10-19T23:20:38.392Z,78.42
2022-10-19T23:24:45.977Z,78.74
2022-10-19T23:28:53.848Z,78.71
2022-10-19T23:33:01.423Z,78.54
2022-10-19T23:37:09.037Z,78.63
2022-10-19T23:41:17.413Z,78.75
2022-10-19T23:45:25.175Z,78.54
2022-10-19T23:49:33.389Z,78.93
2022-10-19T23:53:43.170Z,78.72
2022-10-19T23:57:51.338Z,78.18
